createdAt,value
2023-09-17T18:21:30.655Z,98878.77
2023-09-17T18:27:29.683Z,98886.16
2023-09-17T18:33:02.644Z,98884.13
2023-09-17T18:38:49.439Z,98882.48
2023-09-17T18:44:55.120Z,98888.56
2023-09-17T18:50:50.204Z,98895.55
2023-09-17T18:57:16.813Z,98897.10
2023-09-17T19:02:48.795Z,98902.13
2023-09-17T19:08:36.763Z,98903.09
2023-09-17T19:14:33.737Z,98902.94
2023-09-17T19:19:42.839Z,98905.19
2023-09-17T19:25:12.284Z,98900.88
2023-09-17T19:30:24.064Z,98897.20
2023-09-17T19:36:07.687Z,98889.95
2023-09-17T19:42:14.123Z,98886.02
2023-09-17T19:47:55.641Z,98873.77
2023-09-17T19:53:43.458Z,98872.17
2023-09-17T19:59:54.937Z,98869.06
2023-09-17T20:05:39.332Z,98868.39
2023-09-17T20:12:18.736Z,98865.04
2023-09-17T20:17:41.634Z,98864.16
2023-09-17T20:23:15.522Z,98860.02
2023-09-17T20:28:18.851Z,98854.58
2023-09-17T20:33:41.619Z,98857.27
2023-09-17T20:39:27.630Z,98848.50
2023-09-17T20:45:07.717Z,98856.33
2023-09-17T20:50:34.058Z,98855.45
2023-09-17T20:57:04.870Z,98845.95
2023-09-17T21:02:57.108Z,98847.85
2023-09-17T21:08:38.073Z,98843.36
2023-09-17T21:14:45.533Z,98843.23
2023-09-17T21:20:51.977Z,98842.61
2023-09-17T21:27:55.656Z,98841.79
2023-09-17T21:34:46.537Z,98833.59
2023-09-17T21:41:22.056Z,98825.42
2023-09-17T21:48:08.491Z,98824.30
2023-09-17T21:55:08.619Z,98820.83
2023-09-17T22:01:19.732Z,98811.86
2023-09-17T22:07:45.765Z,98812.14
2023-09-17T22:14:16.530Z,98810.53
2023-09-17T22:20:39.902Z,98806.10
2023-09-17T22:26:44.652Z,98804.70
2023-09-17T22:33:15.454Z,98803.33
2023-09-17T22:40:01.655Z,98803.27
2023-09-17T22:46:36.990Z,98801.33
2023-09-17T22:52:59.731Z,98805.09
2023-09-17T22:59:58.494Z,98796.97
2023-09-17T23:06:36.611Z,98793.80
2023-09-17T23:12:25.534Z,98792.64
2023-09-17T23:18:41.479Z,98792.15
2023-09-17T23:24:58.172Z,98796.98
2023-09-17T23:31:30.593Z,98798.54
2023-09-17T23:37:54.132Z,98791.70
2023-09-17T23:44:31.946Z,98789.40
2023-09-17T23:50:52.327Z,98793.52
2023-09-17T23:56:42.734Z,98790.09
